Time;durP1;ratioP1;P1;durP2;ratioP2;P2;SDS_P1;SDS_P2;PMS_P1;PMS_P2;Temp;Humidity;BMP_temperature;BMP_pressure;BME280_temperature;BME280_humidity;BME280_pressure;Samples;Min_cycle;Max_cycle;Signal;HPM_P1;HPM_P2
2021/10/27 00:01:28;;;;;;;;;;;;;;;13.53;60.19;101451.94;4849662;28;127184;-69
2021/10/27 00:03:53;;;;;;;;;;;;;;;13.51;60.44;101443.25;4881344;28;128335;-69
2021/10/27 00:06:20;;;;;;;;;;;;;;;13.50;60.34;101445.13;4884591;28;114409;-61
2021/10/27 00:08:49;;;;;;;;;;;;;;;13.49;60.20;101448.13;4885627;28;98458;-69
2021/10/27 00:11:16;;;;;;;;;;;;;;;13.48;59.99;101451.91;4885601;28;99143;-69
2021/10/27 00:13:43;;;;;;;;;;;;;;;13.45;60.18;101447.03;4872019;28;98630;-68
2021/10/27 00:16:09;;;;;;;;;;;;;;;13.45;60.48;101452.44;4868766;28;97845;-61
2021/10/27 00:18:35;;;;;;;;;;;;;;;13.44;60.31;101456.19;4882045;28;115290;-68
2021/10/27 00:21:01;;;;;;;;;;;;;;;13.42;60.12;101452.94;4886001;28;98314;-69
2021/10/27 00:23:27;;;;;;;;;;;;;;;13.41;60.19;101456.75;4870610;28;97859;-62
2021/10/27 00:25:55;;;;;;;;;;;;;;;13.40;59.92;101455.09;4866840;28;118245;-69
2021/10/27 00:28:21;;;;;;;;;;;;;;;13.39;60.33;101456.19;4871572;28;125211;-69
2021/10/27 00:30:46;;;;;;;;;;;;;;;13.38;60.48;101457.25;4886425;28;127465;-69
2021/10/27 00:33:13;;;;;;;;;;;;;;;13.37;59.99;101450.22;4884642;28;127385;-68
2021/10/27 00:35:39;;;;;;;;;;;;;;;13.35;60.16;101445.06;4885377;28;97980;-61
2021/10/27 00:38:06;;;;;;;;;;;;;;;13.35;59.81;101455.88;4880706;28;98316;-69
2021/10/27 00:40:32;;;;;;;;;;;;;;;13.33;60.22;101444.50;4869622;28;98921;-61
2021/10/27 00:42:58;;;;;;;;;;;;;;;13.33;60.18;101455.34;4879652;28;116819;-69
2021/10/27 00:45:23;;;;;;;;;;;;;;;13.33;59.91;101446.41;4886776;28;98082;-69
2021/10/27 00:47:49;;;;;;;;;;;;;;;13.31;60.13;101445.84;4883267;28;126723;-62
2021/10/27 00:50:17;;;;;;;;;;;;;;;13.31;60.27;101446.66;4883396;28;128746;-62
2021/10/27 00:52:43;;;;;;;;;;;;;;;13.30;59.88;101447.75;4885261;28;99166;-61
2021/10/27 00:55:09;;;;;;;;;;;;;;;13.31;59.85;101448.56;4886203;28;97884;-68
2021/10/27 00:57:36;;;;;;;;;;;;;;;13.28;60.10;101449.88;4875703;28;118736;-62
2021/10/27 01:00:02;;;;;;;;;;;;;;;13.27;59.86;101443.66;4866908;28;99060;-61
2021/10/27 01:02:28;;;;;;;;;;;;;;;13.26;59.89;101444.75;4864692;28;114562;-61
2021/10/27 01:04:54;;;;;;;;;;;;;;;13.24;60.04;101438.78;4866100;28;116763;-68
2021/10/27 01:07:20;;;;;;;;;;;;;;;13.23;60.03;101444.44;4848683;28;98408;-68
2021/10/27 01:09:46;;;;;;;;;;;;;;;13.22;59.84;101437.38;4872709;28;98475;-69
2021/10/27 01:12:12;;;;;;;;;;;;;;;13.21;59.85;101439.28;4883816;28;127003;-61
2021/10/27 01:14:43;;;;;;;;;;;;;;;13.20;60.03;101442.22;4880543;28;97859;-61
2021/10/27 01:17:11;;;;;;;;;;;;;;;13.19;59.94;101441.41;4865641;28;98195;-69
2021/10/27 01:19:45;;;;;;;;;;;;;;;13.17;59.96;101434.66;4878316;28;98398;-61
2021/10/27 01:22:12;;;;;;;;;;;;;;;13.17;59.79;101440.06;4868193;28;98426;-62
2021/10/27 01:24:38;;;;;;;;;;;;;;;13.15;59.82;101436.78;4886209;28;98012;-62
2021/10/27 01:27:04;;;;;;;;;;;;;;;13.14;59.70;101440.56;4882958;28;127060;-69
2021/10/27 01:29:30;;;;;;;;;;;;;;;13.12;59.93;101435.41;4882836;28;111763;-61
2021/10/27 01:31:56;;;;;;;;;;;;;;;13.12;59.87;101438.09;4883263;28;128328;-61
2021/10/27 01:34:22;;;;;;;;;;;;;;;13.11;59.73;101439.19;4884470;28;118288;-69
2021/10/27 01:36:48;;;;;;;;;;;;;;;13.10;60.03;101447.59;4878906;28;110422;-61
2021/10/27 01:39:14;;;;;;;;;;;;;;;13.08;59.76;101439.72;4884974;28;98005;-61
2021/10/27 01:41:40;;;;;;;;;;;;;;;13.08;59.80;101444.31;4876970;28;127708;-69
2021/10/27 01:44:06;;;;;;;;;;;;;;;13.07;59.69;101448.09;4869923;28;118566;-61
2021/10/27 01:46:33;;;;;;;;;;;;;;;13.07;59.91;101445.38;4865025;28;126019;-69
2021/10/27 01:49:00;;;;;;;;;;;;;;;13.05;59.84;101442.13;4865915;28;98242;-61
2021/10/27 01:51:26;;;;;;;;;;;;;;;13.04;59.74;101444.00;4865100;28;119867;-61
2021/10/27 01:53:53;;;;;;;;;;;;;;;13.03;59.84;101437.78;4865325;28;97828;-69
2021/10/27 01:56:19;;;;;;;;;;;;;;;13.03;59.56;101428.84;4865610;28;98209;-68
2021/10/27 01:58:45;;;;;;;;;;;;;;;13.02;59.78;101429.94;4866546;28;118743;-69
2021/10/27 02:01:11;;;;;;;;;;;;;;;13.00;59.64;101421.25;4865629;28;126499;-61
2021/10/27 02:03:36;;;;;;;;;;;;;;;12.98;59.56;101413.41;4865632;28;117470;-69
2021/10/27 02:06:02;;;;;;;;;;;;;;;12.97;59.63;101409.06;4865778;28;99260;-61
2021/10/27 02:08:28;;;;;;;;;;;;;;;12.97;59.61;101417.19;4872583;28;98588;-61
2021/10/27 02:10:54;;;;;;;;;;;;;;;12.96;59.50;101420.13;4880391;28;127517;-68
2021/10/27 02:13:20;;;;;;;;;;;;;;;12.95;59.51;101423.94;4864392;28;117310;-68
2021/10/27 02:15:46;;;;;;;;;;;;;;;12.94;59.60;101425.81;4864659;28;127938;-69
2021/10/27 02:18:12;;;;;;;;;;;;;;;12.94;59.54;101427.72;4864390;28;127967;-68
2021/10/27 02:20:38;;;;;;;;;;;;;;;12.93;59.48;101434.19;4847017;28;129113;-68
2021/10/27 02:23:04;;;;;;;;;;;;;;;12.93;59.43;101442.31;4848698;28;97870;-69
2021/10/27 02:25:30;;;;;;;;;;;;;;;12.91;59.40;101428.22;4883281;28;98576;-61
2021/10/27 02:27:56;;;;;;;;;;;;;;;12.92;59.52;101421.72;4882472;28;126256;-61
2021/10/27 02:30:22;;;;;;;;;;;;;;;12.90;59.46;101424.72;4884079;28;128249;-61
2021/10/27 02:32:47;;;;;;;;;;;;;;;12.90;59.48;101424.72;4884196;28;112418;-68
2021/10/27 02:35:13;;;;;;;;;;;;;;;12.89;59.37;101433.91;4868183;28;98437;-68
2021/10/27 02:37:39;;;;;;;;;;;;;;;12.89;59.59;101433.06;4869412;28;127881;-61
2021/10/27 02:40:06;;;;;;;;;;;;;;;12.89;59.59;101438.47;4876194;28;126148;-61
2021/10/27 02:42:32;;;;;;;;;;;;;;;12.89;59.41;101428.50;4868570;28;98267;-61
2021/10/27 02:44:58;;;;;;;;;;;;;;;12.89;59.49;101439.31;4867310;28;127126;-68
2021/10/27 02:47:24;;;;;;;;;;;;;;;12.89;59.30;101430.38;4867570;28;128183;-62
2021/10/27 02:49:49;;;;;;;;;;;;;;;12.90;59.46;101437.44;4867679;28;125395;-61
2021/10/27 02:52:16;;;;;;;;;;;;;;;12.89;59.39;101425.78;4867633;28;117572;-68
2021/10/27 02:54:42;;;;;;;;;;;;;;;12.89;59.27;101423.09;4867841;28;97996;-61
2021/10/27 02:57:08;;;;;;;;;;;;;;;12.89;59.38;101436.63;4867154;28;128523;-61
2021/10/27 02:59:34;;;;;;;;;;;;;;;12.88;59.25;101434.97;4867034;28;127440;-61
2021/10/27 03:02:01;;;;;;;;;;;;;;;12.88;59.28;101432.25;4851502;28;116701;-68
2021/10/27 03:04:27;;;;;;;;;;;;;;;12.87;59.41;101436.03;4852055;28;98162;-62
2021/10/27 03:06:53;;;;;;;;;;;;;;;12.87;59.46;101441.47;4877483;28;98357;-61
2021/10/27 03:09:19;;;;;;;;;;;;;;;12.87;59.31;101437.94;4887005;28;127697;-61
2021/10/27 03:11:45;;;;;;;;;;;;;;;12.87;59.41;101429.81;4888114;28;97890;-68
2021/10/27 03:14:11;;;;;;;;;;;;;;;12.87;59.41;101432.53;4900078;28;123658;-68
2021/10/27 03:16:37;;;;;;;;;;;;;;;12.87;59.08;101437.94;4887478;28;98253;-68
2021/10/27 03:19:03;;;;;;;;;;;;;;;12.87;59.58;101435.25;4886757;28;98195;-69
2021/10/27 03:21:29;;;;;;;;;;;;;;;12.88;59.42;101447.69;4886469;28;102677;-68
2021/10/27 03:23:57;;;;;;;;;;;;;;;12.88;59.43;101453.91;4887692;28;103733;-61
2021/10/27 03:26:23;;;;;;;;;;;;;;;12.89;59.41;101450.16;4878852;28;98283;-68
2021/10/27 03:28:48;;;;;;;;;;;;;;;12.90;59.50;101454.47;4883336;28;120413;-61
2021/10/27 03:31:14;;;;;;;;;;;;;;;12.91;59.40;101445.28;4885723;28;117571;-68
2021/10/27 03:33:40;;;;;;;;;;;;;;;12.93;59.50;101445.00;4878070;28;128156;-69
2021/10/27 03:36:07;;;;;;;;;;;;;;;12.93;59.41;101445.84;4868869;28;98620;-68
2021/10/27 03:38:33;;;;;;;;;;;;;;;12.94;59.49;101444.75;4849913;28;97973;-62
2021/10/27 03:40:59;;;;;;;;;;;;;;;12.95;59.61;101448.28;4848905;28;118252;-61
2021/10/27 03:43:25;;;;;;;;;;;;;;;12.95;59.69;101446.38;4867324;28;98180;-67
2021/10/27 03:45:51;;;;;;;;;;;;;;;12.97;59.61;101452.38;4867946;28;98427;-61
2021/10/27 03:48:18;;;;;;;;;;;;;;;12.97;59.69;101448.84;4849022;28;98820;-68
2021/10/27 03:50:44;;;;;;;;;;;;;;;12.98;59.81;101459.41;4850458;28;97872;-69
2021/10/27 03:53:10;;;;;;;;;;;;;;;12.99;59.74;101461.03;4849490;28;98393;-69
2021/10/27 03:55:36;;;;;;;;;;;;;;;13.01;59.74;101467.00;4867560;28;98034;-61
2021/10/27 03:58:02;;;;;;;;;;;;;;;13.01;59.72;101461.59;4866877;28;127295;-61
2021/10/27 04:00:28;;;;;;;;;;;;;;;13.01;59.78;101466.22;4868412;28;98073;-68
2021/10/27 04:02:54;;;;;;;;;;;;;;;13.03;59.85;101464.03;4848026;28;125478;-62
2021/10/27 04:05:20;;;;;;;;;;;;;;;13.02;59.74;101468.63;4886556;28;98562;-68
2021/10/27 04:07:46;;;;;;;;;;;;;;;13.04;59.79;101468.38;4885028;28;98220;-61
2021/10/27 04:10:12;;;;;;;;;;;;;;;13.02;59.93;101467.84;4885546;28;97837;-61
2021/10/27 04:12:39;;;;;;;;;;;;;;;13.03;59.96;101464.03;4885438;28;129340;-68
2021/10/27 04:15:06;;;;;;;;;;;;;;;13.04;59.85;101465.66;4886299;28;121323;-62
2021/10/27 04:17:32;;;;;;;;;;;;;;;13.03;59.80;101472.97;4885279;28;117057;-61
2021/10/27 04:19:58;;;;;;;;;;;;;;;13.05;59.81;101466.47;4886716;28;98025;-61
2021/10/27 04:22:24;;;;;;;;;;;;;;;13.06;60.09;101473.53;4885842;28;109413;-68
2021/10/27 04:24:50;;;;;;;;;;;;;;;13.06;60.06;101470.84;4884750;28;109548;-61
2021/10/27 04:27:16;;;;;;;;;;;;;;;13.04;60.06;101471.06;4886189;28;98229;-68
2021/10/27 04:29:42;;;;;;;;;;;;;;;13.07;59.82;101469.75;4884986;28;98203;-68
2021/10/27 04:32:08;;;;;;;;;;;;;;;13.07;59.93;101477.88;4870780;28;126613;-61
2021/10/27 04:34:34;;;;;;;;;;;;;;;13.09;60.13;101483.84;4865948;28;128333;-61
2021/10/27 04:37:00;;;;;;;;;;;;;;;13.08;60.05;101480.31;4865546;28;115137;-61
2021/10/27 04:39:26;;;;;;;;;;;;;;;13.09;60.07;101481.16;4869342;28;98130;-61
2021/10/27 04:41:52;;;;;;;;;;;;;;;13.08;60.23;101474.91;4872012;28;128613;-61
2021/10/27 04:44:18;;;;;;;;;;;;;;;13.09;60.00;101481.16;4880132;28;128707;-61
2021/10/27 04:46:44;;;;;;;;;;;;;;;13.11;60.05;101478.97;4899077;28;128434;-61
2021/10/27 04:49:10;;;;;;;;;;;;;;;13.10;60.01;101474.66;4901889;28;97818;-61
2021/10/27 04:51:36;;;;;;;;;;;;;;;13.10;60.11;101483.59;4893407;28;98847;-61
2021/10/27 04:54:02;;;;;;;;;;;;;;;13.10;60.01;101478.16;4894309;28;128181;-61
2021/10/27 04:56:29;;;;;;;;;;;;;;;13.11;60.05;101471.69;4899690;28;98692;-61
2021/10/27 04:58:55;;;;;;;;;;;;;;;13.10;60.10;101475.47;4887606;28;97885;-61
2021/10/27 05:01:21;;;;;;;;;;;;;;;13.12;60.22;101472.50;4882231;28;128265;-61
2021/10/27 05:03:47;;;;;;;;;;;;;;;13.12;60.29;101473.28;4866305;28;128358;-61
2021/10/27 05:06:13;;;;;;;;;;;;;;;13.13;60.34;101479.56;4866391;28;98061;-61
2021/10/27 05:08:39;;;;;;;;;;;;;;;13.13;60.23;101474.13;4867723;28;98082;-61
2021/10/27 05:11:05;;;;;;;;;;;;;;;13.14;60.32;101475.75;4866794;28;98196;-61
2021/10/27 05:13:31;;;;;;;;;;;;;;;13.13;60.47;101466.03;4865283;28;128795;-61
2021/10/27 05:15:57;;;;;;;;;;;;;;;13.14;60.13;101473.06;4865023;28;126720;-62
2021/10/27 05:18:23;;;;;;;;;;;;;;;13.14;60.18;101467.66;4866690;28;97769;-61
2021/10/27 05:20:49;;;;;;;;;;;;;;;13.15;60.32;101466.56;4865379;28;98474;-61
2021/10/27 05:23:15;;;;;;;;;;;;;;;13.15;60.31;101461.16;4869946;28;127736;-61
2021/10/27 05:25:41;;;;;;;;;;;;;;;13.15;60.49;101469.25;4893550;28;97994;-61
2021/10/27 05:28:07;;;;;;;;;;;;;;;13.16;60.47;101479.00;4867193;28;98027;-61
2021/10/27 05:30:33;;;;;;;;;;;;;;;13.16;60.26;101479.81;4875117;28;98519;-61
2021/10/27 05:32:59;;;;;;;;;;;;;;;13.15;60.36;101469.25;4879764;28;128375;-61
2021/10/27 05:35:26;;;;;;;;;;;;;;;13.17;60.20;101483.38;4883169;28;121042;-61
2021/10/27 05:37:52;;;;;;;;;;;;;;;13.18;60.27;101491.22;4879598;28;97838;-61
2021/10/27 05:40:18;;;;;;;;;;;;;;;13.19;60.33;101487.44;4882788;28;98242;-61
2021/10/27 05:42:46;;;;;;;;;;;;;;;13.21;60.33;101495.31;4882654;28;115893;-61
2021/10/27 05:45:12;;;;;;;;;;;;;;;13.21;60.54;101490.72;4884726;28;97982;-61
2021/10/27 05:47:42;;;;;;;;;;;;;;;13.23;60.34;101487.75;4872084;28;98125;-61
2021/10/27 05:50:33;;;;;;;;;;;;;;;13.24;60.37;101487.53;4885028;28;98312;-61
2021/10/27 05:55:39;;;;;;;;;;;;;;;13.27;60.28;101481.56;4875524;28;98081;-61
2021/10/27 05:58:06;;;;;;;;;;;;;;;13.30;60.25;101487.53;4881695;28;116683;-61
2021/10/27 06:00:32;;;;;;;;;;;;;;;13.33;60.21;101492.44;4880813;28;98216;-61
2021/10/27 06:03:01;;;;;;;;;;;;;;;13.35;60.28;101488.38;4867029;28;98303;-61
2021/10/27 06:05:27;;;;;;;;;;;;;;;13.37;60.12;101497.06;4865318;28;98096;-61
2021/10/27 06:07:53;;;;;;;;;;;;;;;13.40;60.44;101484.88;4865904;28;108549;-61
2021/10/27 06:10:22;;;;;;;;;;;;;;;13.43;60.47;101495.19;4865001;28;97983;-61
2021/10/27 06:12:57;;;;;;;;;;;;;;;13.46;60.03;101500.91;4864897;28;98804;-61
2021/10/27 06:15:23;;;;;;;;;;;;;;;13.50;59.89;101510.16;4868666;28;98540;-61
2021/10/27 06:17:49;;;;;;;;;;;;;;;13.51;60.16;101503.66;4882968;28;98887;-61
2021/10/27 06:20:15;;;;;;;;;;;;;;;13.56;59.93;101507.47;4883922;28;99024;-61
2021/10/27 06:22:41;;;;;;;;;;;;;;;13.59;59.92;101515.88;4880509;28;127793;-61
2021/10/27 06:25:09;;;;;;;;;;;;;;;13.64;59.93;101517.81;4846541;28;123322;-61
2021/10/27 06:27:35;;;;;;;;;;;;;;;13.69;59.80;101520.56;4865311;28;98864;-61
2021/10/27 06:30:11;;;;;;;;;;;;;;;13.72;59.98;101525.47;4882189;28;98585;-62
2021/10/27 06:35:15;;;;;;;;;;;;;;;13.82;59.77;101524.69;4861284;28;98142;-61
2021/10/27 06:46:28;;;;;;;;;;;;;;;14.03;59.94;101534.56;4862817;28;97891;-69
2021/10/27 06:48:54;;;;;;;;;;;;;;;14.11;59.49;101534.03;4861125;28;97862;-68
2021/10/27 06:51:20;;;;;;;;;;;;;;;14.17;59.66;101534.88;4865527;28;98147;-61
2021/10/27 06:53:47;;;;;;;;;;;;;;;14.23;59.53;101537.34;4857435;28;126885;-61
2021/10/27 06:56:13;;;;;;;;;;;;;;;14.29;59.24;101549.00;4863696;28;98329;-62
2021/10/27 06:58:51;;;;;;;;;;;;;;;14.37;59.10;101545.78;4865420;28;98008;-68
2021/10/27 07:01:31;;;;;;;;;;;;;;;14.46;59.25;101548.78;4864441;28;98720;-69
2021/10/27 07:06:45;;;;;;;;;;;;;;;14.64;59.29;101552.94;4862351;28;98064;-61
2021/10/27 07:15:02;;;;;;;;;;;;;;;14.90;59.03;101561.94;4861652;28;97919;-68
2021/10/27 07:17:30;;;;;;;;;;;;;;;14.98;58.69;101567.66;4865842;28;97803;-68
2021/10/27 07:19:56;;;;;;;;;;;;;;;15.08;58.78;101576.88;4868147;28;97761;-69
2021/10/27 07:22:22;;;;;;;;;;;;;;;15.16;58.70;101576.34;4858096;28;98387;-62
2021/10/27 07:24:48;;;;;;;;;;;;;;;15.22;58.68;101578.00;4867671;28;113747;-68
2021/10/27 07:27:14;;;;;;;;;;;;;;;15.30;58.22;101587.50;4866278;28;128009;-62
2021/10/27 07:29:44;;;;;;;;;;;;;;;15.40;58.18;101579.31;4867486;28;97896;-69
2021/10/27 07:32:12;;;;;;;;;;;;;;;15.52;58.16;101581.75;4867306;28;98262;-69
2021/10/27 07:34:41;;;;;;;;;;;;;;;15.64;58.13;101585.00;4860804;28;99015;-68
2021/10/27 07:43:00;;;;;;;;;;;;;;;16.02;57.50;101588.22;4859938;28;98041;-68
2021/10/27 07:45:27;;;;;;;;;;;;;;;16.25;57.10;101579.44;4859438;28;98816;-61
2021/10/27 07:47:55;;;;;;;;;;;;;;;16.50;56.98;101573.06;4866868;28;98510;-68
2021/10/27 07:50:25;;;;;;;;;;;;;;;16.86;56.29;101573.72;4867444;28;97978;-69
2021/10/27 07:52:52;;;;;;;;;;;;;;;17.26;55.68;101573.69;4866496;28;98681;-68
2021/10/27 07:55:18;;;;;;;;;;;;;;;17.62;55.29;101574.16;4868025;28;98478;-68
2021/10/27 07:57:44;;;;;;;;;;;;;;;17.95;54.73;101574.38;4866430;28;98024;-66
2021/10/27 08:00:11;;;;;;;;;;;;;;;18.43;54.00;101577.06;4867226;28;97754;-62
2021/10/27 08:02:37;;;;;;;;;;;;;;;18.56;54.03;101577.16;4867688;28;98248;-68
2021/10/27 08:05:04;;;;;;;;;;;;;;;19.04;53.62;101571.56;4866449;28;128031;-69
2021/10/27 08:07:29;;;;;;;;;;;;;;;19.48;52.91;101574.94;4871587;28;98705;-69
2021/10/27 08:09:55;;;;;;;;;;;;;;;20.22;52.00;101581.19;4886435;28;116862;-68
2021/10/27 08:12:21;;;;;;;;;;;;;;;20.87;51.11;101584.72;4885857;28;128818;-68
2021/10/27 08:14:47;;;;;;;;;;;;;;;21.95;49.70;101587.19;4885869;28;129192;-62
2021/10/27 08:17:13;;;;;;;;;;;;;;;21.29;51.49;101584.22;4884814;28;126877;-69
2021/10/27 08:19:41;;;;;;;;;;;;;;;20.95;52.49;101586.75;4880009;28;97902;-62
2021/10/27 08:22:09;;;;;;;;;;;;;;;20.75;52.82;101577.88;4884619;28;98302;-69
2021/10/27 08:24:35;;;;;;;;;;;;;;;20.60;53.01;101578.22;4886295;28;98100;-62
2021/10/27 08:27:07;;;;;;;;;;;;;;;20.33;53.59;101581.78;4885290;28;98141;-68
2021/10/27 08:29:38;;;;;;;;;;;;;;;20.15;53.75;101579.97;4886641;28;97786;-62
2021/10/27 08:32:39;;;;;;;;;;;;;;;19.82;54.33;101577.34;4885801;28;98381;-67
2021/10/27 08:35:06;;;;;;;;;;;;;;;19.50;54.86;101576.25;4882585;28;98199;-62
2021/10/27 08:37:33;;;;;;;;;;;;;;;19.31;55.29;101579.03;4885262;28;97946;-62
2021/10/27 08:39:59;;;;;;;;;;;;;;;19.19;55.44;101577.91;4886951;28;97805;-62
2021/10/27 08:42:25;;;;;;;;;;;;;;;19.03;55.62;101582.78;4885701;28;107768;-68
2021/10/27 08:44:51;;;;;;;;;;;;;;;18.87;55.90;101582.22;4886132;28;99199;-62
2021/10/27 08:47:17;;;;;;;;;;;;;;;18.73;56.06;101576.66;4884771;28;127770;-62
2021/10/27 08:49:43;;;;;;;;;;;;;;;18.59;56.12;101581.22;4878743;28;118296;-62
2021/10/27 08:52:12;;;;;;;;;;;;;;;18.50;56.25;101580.25;4883471;28;99190;-62
2021/10/27 08:54:38;;;;;;;;;;;;;;;18.42;56.32;101575.44;4886732;28;98664;-62
2021/10/27 08:57:06;;;;;;;;;;;;;;;18.36;56.63;101577.44;4884513;28;122044;-68
2021/10/27 09:02:39;;;;;;;;;;;;;;;18.25;56.45;101565.84;4872317;28;98277;-69
2021/10/27 09:08:33;;;;;;;;;;;;;;;18.14;56.79;101575.25;4868554;28;98241;-68
2021/10/27 09:33:45;;;;;;;;;;;;;;;17.75;57.51;101578.94;4874462;28;98115;-68
2021/10/27 09:34:10;;;;;;;;;;;;;;;17.47;57.80;101564.22;4838177;28;98142;-68
2021/10/27 09:43:09;;;;;;;;;;;;;;;17.38;57.83;101574.94;4885169;28;98358;-68
2021/10/27 10:05:17;;;;;;;;;;;;;;;17.57;57.62;101580.47;4881436;28;97862;-69
2021/10/27 10:07:43;;;;;;;;;;;;;;;17.59;57.66;101575.53;4884531;28;97828;-69
2021/10/27 10:10:09;;;;;;;;;;;;;;;17.61;57.53;101580.72;4883989;28;99090;-69
2021/10/27 10:12:55;;;;;;;;;;;;;;;17.61;57.56;101591.63;4866451;28;122762;-68
2021/10/27 10:15:38;;;;;;;;;;;;;;;17.62;57.60;101590.50;4863620;28;127283;-68
2021/10/27 10:18:04;;;;;;;;;;;;;;;17.60;57.60;101587.25;4864655;28;97932;-68
2021/10/27 10:20:29;;;;;;;;;;;;;;;17.60;57.65;101588.06;4840046;28;124612;-68
2021/10/27 10:22:55;;;;;;;;;;;;;;;17.59;57.71;101596.53;4897938;28;128586;-68
2021/10/27 10:25:26;;;;;;;;;;;;;;;17.55;57.87;101590.84;4864282;28;128692;-61
2021/10/27 10:27:56;;;;;;;;;;;;;;;17.54;57.78;101596.59;4884266;28;98168;-61
2021/10/27 10:30:29;;;;;;;;;;;;;;;17.50;57.91;101599.06;4882761;28;98465;-68
2021/10/27 10:32:59;;;;;;;;;;;;;;;17.40;58.22;101605.41;4884279;28;98674;-62
2021/10/27 10:35:34;;;;;;;;;;;;;;;17.36;58.31;101598.09;4884130;28;97942;-68
2021/10/27 10:38:07;;;;;;;;;;;;;;;17.31;58.31;101598.97;4864940;28;98238;-61
2021/10/27 10:43:52;;;;;;;;;;;;;;;17.29;58.42;101601.16;4865057;28;98060;-61
2021/10/27 10:55:40;;;;;;;;;;;;;;;17.28;58.32;101607.69;4865623;28;97829;-68
2021/10/27 11:39:45;;;;;;;;;;;;;;;17.45;58.61;101596.41;4869398;28;98040;-61
2021/10/27 11:45:09;;;;;;;;;;;;;;;17.45;58.76;101592.84;4867804;28;97991;-61
2021/10/27 11:47:38;;;;;;;;;;;;;;;17.43;58.77;101587.69;4870153;28;98903;-67
2021/10/27 11:50:13;;;;;;;;;;;;;;;17.43;58.71;101585.78;4867410;28;97865;-61
2021/10/27 11:52:40;;;;;;;;;;;;;;;17.44;58.77;101589.31;4874954;28;98398;-68
2021/10/27 11:55:07;;;;;;;;;;;;;;;17.45;58.84;101590.94;4886847;28;97874;-68
2021/10/27 11:57:34;;;;;;;;;;;;;;;17.45;58.88;101584.66;4884850;28;98074;-68
2021/10/27 12:00:04;;;;;;;;;;;;;;;17.46;58.81;101587.13;4885400;28;122595;-68
2021/10/27 12:03:05;;;;;;;;;;;;;;;17.47;58.81;101582.47;4885564;28;99312;-68
2021/10/27 12:05:40;;;;;;;;;;;;;;;17.47;58.97;101582.47;4887037;28;97869;-68
2021/10/27 12:08:30;;;;;;;;;;;;;;;17.45;59.05;101573.75;4886269;28;97820;-69
2021/10/27 12:13:57;;;;;;;;;;;;;;;17.45;58.90;101574.59;4882644;28;98161;-69
2021/10/27 12:19:06;;;;;;;;;;;;;;;17.48;58.99;101563.09;4883482;28;98446;-69
2021/10/27 12:21:33;;;;;;;;;;;;;;;17.49;59.04;101561.19;4884942;28;98275;-68
2021/10/27 12:24:01;;;;;;;;;;;;;;;17.52;59.01;101561.44;4880968;28;109629;-69
2021/10/27 12:26:28;;;;;;;;;;;;;;;17.54;58.99;101556.50;4886092;28;97857;-68
2021/10/27 12:29:22;;;;;;;;;;;;;;;17.54;58.90;101552.97;4884455;28;98921;-68
2021/10/27 12:32:02;;;;;;;;;;;;;;;17.53;58.92;101560.34;4886261;28;98550;-69
2021/10/27 12:34:28;;;;;;;;;;;;;;;17.54;59.08;101553.78;4885646;28;102431;-68
2021/10/27 12:36:57;;;;;;;;;;;;;;;17.61;59.12;101557.00;4875850;28;97882;-68
2021/10/27 12:39:31;;;;;;;;;;;;;;;17.68;59.05;101551.19;4848334;28;97939;-68
2021/10/27 12:42:00;;;;;;;;;;;;;;;17.76;58.81;101556.03;4866982;28;98947;-68
2021/10/27 12:44:26;;;;;;;;;;;;;;;17.83;58.93;101561.16;4866122;28;98766;-68
2021/10/27 12:47:08;;;;;;;;;;;;;;;17.89;58.82;101557.28;4877025;28;98047;-68
2021/10/27 12:49:34;;;;;;;;;;;;;;;17.94;58.86;101556.41;4872547;28;98409;-68
2021/10/27 12:52:27;;;;;;;;;;;;;;;17.99;58.70;101556.34;4865342;28;128535;-68
2021/10/27 12:55:26;;;;;;;;;;;;;;;18.04;58.68;101564.47;4882694;28;98698;-68
2021/10/27 12:57:58;;;;;;;;;;;;;;;18.08;58.75;101560.06;4851916;28;98379;-68
2021/10/27 13:01:10;;;;;;;;;;;;;;;18.11;58.52;101560.25;4876707;28;98966;-68
2021/10/27 13:03:49;;;;;;;;;;;;;;;18.14;58.78;101558.88;4883953;28;98241;-68
2021/10/27 13:11:41;;;;;;;;;;;;;;;18.20;58.52;101549.53;4873909;28;98587;-68
2021/10/27 13:17:08;;;;;;;;;;;;;;;18.28;58.67;101556.25;4883412;28;97892;-68
2021/10/27 13:30:45;;;;;;;;;;;;;;;18.30;58.59;101548.56;4863669;28;98037;-61
2021/10/27 13:33:11;;;;;;;;;;;;;;;18.30;58.67;101552.13;4866450;28;98201;-68
2021/10/27 13:35:37;;;;;;;;;;;;;;;18.29;58.46;101547.78;4831833;28;125514;-61
2021/10/27 13:38:03;;;;;;;;;;;;;;;18.29;58.48;101546.97;4864429;28;128298;-68
2021/10/27 13:40:30;;;;;;;;;;;;;;;18.31;58.71;101547.47;4849393;28;98205;-61
2021/10/27 13:45:51;;;;;;;;;;;;;;;18.31;58.55;101552.94;4881255;28;97857;-61
2021/10/27 13:48:25;;;;;;;;;;;;;;;18.28;58.53;101546.16;4884701;28;98181;-61
2021/10/27 14:10:03;;;;;;;;;;;;;;;18.11;59.20;101535.72;4862297;28;98328;-68
2021/10/27 14:12:46;;;;;;;;;;;;;;;18.09;58.86;101534.41;4866661;28;97765;-61
2021/10/27 14:18:02;;;;;;;;;;;;;;;18.03;59.13;101538.28;4866620;28;98441;-68
2021/10/27 14:39:50;;;;;;;;;;;;;;;17.72;59.46;101518.69;4881825;28;98168;-61
2021/10/27 14:48:26;;;;;;;;;;;;;;;17.60;59.67;101508.19;4865840;28;97982;-61
2021/10/27 15:20:35;;;;;;;;;;;;;;;17.23;59.84;101503.41;4867876;28;97742;-61
2021/10/27 15:23:13;;;;;;;;;;;;;;;17.20;59.68;101495.81;4886272;28;99396;-61
2021/10/27 15:26:03;;;;;;;;;;;;;;;17.16;59.74;101498.28;4885626;28;97920;-62
2021/10/27 15:28:44;;;;;;;;;;;;;;;17.13;59.80;101496.97;4885888;28;97941;-68
2021/10/27 15:34:19;;;;;;;;;;;;;;;17.07;59.72;101510.91;4875366;28;98414;-61
2021/10/27 15:52:56;;;;;;;;;;;;;;;16.87;60.13;101520.06;4900225;28;98280;-61
2021/10/27 15:55:22;;;;;;;;;;;;;;;16.84;60.13;101515.16;4900131;28;98342;-61
2021/10/27 15:57:48;;;;;;;;;;;;;;;16.82;60.02;101523.63;4893621;28;117111;-68
2021/10/27 16:00:15;;;;;;;;;;;;;;;16.80;60.10;101523.09;4893653;28;117914;-61
2021/10/27 16:02:41;;;;;;;;;;;;;;;16.78;60.31;101528.03;4900910;28;98546;-68
2021/10/27 16:05:08;;;;;;;;;;;;;;;16.77;60.10;101520.13;4901330;28;99040;-61
2021/10/27 16:07:36;;;;;;;;;;;;;;;16.76;60.10;101527.47;4900653;28;99472;-61
2021/10/27 16:10:13;;;;;;;;;;;;;;;16.75;60.30;101538.66;4897011;28;98266;-68
2021/10/27 16:12:39;;;;;;;;;;;;;;;16.72;60.35;101529.09;4892079;28;98539;-61
2021/10/27 16:15:11;;;;;;;;;;;;;;;16.72;60.19;101531.84;4899027;28;127120;-68
2021/10/27 16:17:38;;;;;;;;;;;;;;;16.70;60.25;101525.84;4898627;28;98312;-61
2021/10/27 16:20:04;;;;;;;;;;;;;;;16.69;60.07;101526.94;4884641;28;98081;-69
2021/10/27 16:22:31;;;;;;;;;;;;;;;16.67;60.30;101529.97;4882340;28;99543;-68
2021/10/27 16:24:57;;;;;;;;;;;;;;;16.66;60.13;101531.06;4893023;28;118240;-68
2021/10/27 16:27:23;;;;;;;;;;;;;;;16.65;60.13;101531.34;4899371;28;98299;-68
2021/10/27 16:29:48;;;;;;;;;;;;;;;16.64;60.21;101535.16;4893315;28;116493;-68
2021/10/27 16:32:14;;;;;;;;;;;;;;;16.62;60.19;101538.16;4898912;28;127849;-61
2021/10/27 16:34:41;;;;;;;;;;;;;;;16.61;60.09;101536.53;4897116;28;126986;-68
2021/10/27 16:37:07;;;;;;;;;;;;;;;16.61;60.14;101541.16;4900037;28;97894;-68
2021/10/27 16:39:33;;;;;;;;;;;;;;;16.60;60.37;101536.81;4891393;28;117387;-61
2021/10/27 16:41:59;;;;;;;;;;;;;;;16.57;60.22;101538.19;4891786;28;127767;-61
2021/10/27 16:44:25;;;;;;;;;;;;;;;16.58;60.26;101536.28;4872882;28;98855;-61
2021/10/27 16:46:50;;;;;;;;;;;;;;;16.57;60.37;101540.91;4899215;28;126987;-68
2021/10/27 16:49:17;;;;;;;;;;;;;;;16.56;60.28;101538.47;4894448;28;98053;-61
2021/10/27 16:51:43;;;;;;;;;;;;;;;16.55;60.32;101536.84;4895104;28;98443;-69
2021/10/27 16:54:09;;;;;;;;;;;;;;;16.54;60.28;101536.00;4891999;28;98634;-68
2021/10/27 16:56:36;;;;;;;;;;;;;;;16.54;60.21;101543.38;4896378;28;119419;-62
2021/10/27 16:59:02;;;;;;;;;;;;;;;16.53;60.33;101533.59;4892222;28;98872;-61
2021/10/27 17:01:28;;;;;;;;;;;;;;;16.51;60.06;101533.06;4890816;28;128282;-61